createdAt,value
2023-04-10T00:00:58.667Z,2.90
2023-04-10T00:03:44.588Z,2.96
2023-04-10T00:06:31.677Z,3.12
2023-04-10T00:09:17.791Z,3.18
2023-04-10T00:12:05.406Z,3.21
2023-04-10T00:14:51.419Z,3.18
2023-04-10T00:17:37.482Z,3.15
2023-04-10T00:20:33.042Z,3.07
2023-04-10T00:23:18.907Z,3.10
2023-04-10T00:26:11.874Z,3.00
2023-04-10T00:29:08.140Z,2.97
2023-04-10T00:32:00.805Z,2.93
2023-04-10T00:34:53.857Z,2.98
2023-04-10T00:37:46.417Z,2.96
2023-04-10T00:40:38.964Z,3.02
2023-04-10T00:43:38.159Z,3.07
2023-04-10T00:46:32.456Z,3.18
2023-04-10T00:49:24.948Z,3.41
2023-04-10T00:52:18.700Z,3.63
2023-04-10T00:55:11.932Z,3.91
2023-04-10T00:58:04.624Z,4.13
2023-04-10T01:04:16.126Z,4.45
2023-04-10T01:10:32.136Z,4.71
2023-04-10T01:13:29.502Z,4.90
2023-04-10T01:16:35.264Z,4.98
2023-04-10T01:22:50.943Z,5.14
2023-04-10T01:25:46.475Z,5.19
2023-04-10T01:29:00.142Z,5.17
2023-04-10T01:31:55.241Z,5.31
2023-04-10T01:34:50.321Z,5.49
2023-04-10T01:37:44.433Z,5.72
2023-04-10T01:41:02.800Z,5.73
2023-04-10T01:43:58.852Z,5.78
2023-04-10T01:47:20.977Z,5.85
2023-04-10T01:50:16.288Z,6.00
2023-04-10T01:53:23.730Z,6.14
2023-04-10T01:56:16.231Z,6.28
2023-04-10T01:59:13.644Z,6.31
2023-04-10T02:02:07.817Z,6.34
2023-04-10T02:05:01.203Z,6.26
2023-04-10T02:11:12.594Z,6.14
2023-04-10T02:14:09.250Z,6.30
2023-04-10T02:17:03.738Z,6.31
2023-04-10T02:19:57.020Z,6.26
2023-04-10T02:22:49.969Z,6.28
2023-04-10T02:25:42.325Z,6.19
2023-04-10T02:31:48.375Z,6.09
2023-04-10T02:34:43.706Z,6.15
2023-04-10T02:37:37.016Z,6.05
2023-04-10T02:43:40.451Z,6.36
2023-04-10T02:50:00.489Z,6.43
2023-04-10T02:56:25.674Z,6.44
2023-04-10T02:59:18.627Z,6.48
2023-04-10T03:02:12.034Z,6.54
2023-04-10T03:05:08.976Z,6.66
2023-04-10T03:08:01.711Z,6.70
2023-04-10T03:10:54.673Z,6.86
2023-04-10T03:13:48.813Z,6.94
2023-04-10T03:16:41.991Z,6.96
2023-04-10T03:19:34.545Z,6.97
2023-04-10T03:22:30.271Z,7.00
2023-04-10T03:25:23.489Z,6.99
2023-04-10T03:28:41.980Z,7.06
2023-04-10T03:31:35.312Z,7.05
2023-04-10T03:37:57.926Z,6.99
2023-04-10T03:41:08.089Z,7.05
2023-04-10T03:43:57.584Z,7.17
2023-04-10T03:50:12.011Z,7.12
2023-04-10T03:56:35.284Z,7.22
2023-04-10T04:02:32.613Z,7.66
2023-04-10T04:08:38.662Z,7.73
2023-04-10T04:14:55.342Z,8.08
2023-04-10T04:17:47.796Z,8.30
2023-04-10T04:21:25.366Z,8.43
2023-04-10T04:24:32.534Z,8.42
2023-04-10T04:27:41.719Z,8.47
2023-04-10T04:30:49.938Z,8.40
2023-04-10T04:33:52.254Z,8.36
2023-04-10T04:36:54.365Z,8.41
2023-04-10T04:43:04.977Z,8.53
2023-04-10T04:49:41.320Z,8.47
2023-04-10T04:56:04.946Z,8.34
2023-04-10T04:59:26.931Z,8.32
2023-04-10T05:02:33.969Z,8.36
2023-04-10T05:05:34.078Z,8.38
2023-04-10T05:08:38.330Z,8.47
2023-04-10T05:11:50.675Z,8.65
2023-04-10T05:14:47.181Z,8.68
2023-04-10T05:18:06.604Z,8.88
2023-04-10T05:21:09.558Z,9.14
2023-04-10T05:24:20.692Z,9.37
2023-04-10T05:27:27.597Z,9.59
2023-04-10T05:30:38.862Z,9.72
2023-04-10T05:33:51.055Z,9.94
2023-04-10T05:37:04.026Z,10.08
2023-04-10T05:40:16.833Z,10.35
2023-04-10T05:43:38.805Z,10.65
2023-04-10T05:46:51.856Z,10.94
2023-04-10T05:50:03.791Z,11.13
2023-04-10T05:53:20.205Z,11.48
2023-04-10T05:56:43.068Z,11.84
2023-04-10T05:59:54.575Z,12.15
2023-04-10T06:02:47.870Z,12.52
2023-04-10T06:05:49.051Z,12.78
2023-04-10T06:08:43.341Z,12.95
2023-04-10T06:11:35.888Z,13.00
2023-04-10T06:14:28.682Z,13.10
2023-04-10T06:17:25.667Z,13.47
2023-04-10T06:20:18.859Z,13.81
2023-04-10T06:23:12.272Z,13.96
2023-04-10T06:26:06.443Z,13.97
2023-04-10T06:28:58.762Z,13.81
2023-04-10T06:31:58.250Z,13.71
2023-04-10T06:34:51.623Z,13.53
2023-04-10T06:37:44.664Z,13.48
2023-04-10T06:40:37.664Z,13.39
2023-04-10T06:43:33.502Z,13.41
2023-04-10T06:46:25.911Z,13.39
2023-04-10T06:49:55.916Z,13.40
2023-04-10T06:52:48.908Z,13.43
2023-04-10T06:56:18.963Z,13.77
2023-04-10T06:59:13.191Z,14.14
2023-04-10T07:02:05.639Z,14.23
2023-04-10T07:04:59.148Z,14.26
2023-04-10T07:07:51.646Z,14.45
2023-04-10T07:10:44.772Z,14.61
2023-04-10T07:13:39.871Z,14.66
2023-04-10T07:16:34.141Z,14.92
2023-04-10T07:19:41.143Z,15.20
2023-04-10T07:22:33.664Z,15.50
2023-04-10T07:28:47.910Z,16.16
2023-04-10T07:34:47.271Z,16.20
2023-04-10T07:37:40.195Z,16.14
2023-04-10T07:40:32.324Z,16.37
2023-04-10T07:43:24.750Z,16.43
2023-04-10T07:49:38.910Z,16.16
2023-04-10T07:55:58.170Z,16.22
2023-04-10T07:58:52.613Z,16.46
2023-04-10T08:01:45.771Z,16.51
2023-04-10T08:04:38.923Z,16.62
2023-04-10T08:10:40.703Z,17.23
2023-04-10T08:13:34.630Z,17.19
2023-04-10T08:20:55.875Z,18.43
2023-04-10T08:23:51.636Z,18.27
2023-04-10T08:26:44.468Z,17.76
2023-04-10T08:29:44.828Z,17.93
2023-04-10T08:32:37.957Z,17.80
2023-04-10T08:35:30.273Z,17.65
2023-04-10T08:38:25.047Z,17.44
2023-04-10T08:41:19.308Z,17.41
2023-04-10T08:44:12.921Z,17.54
2023-04-10T08:47:06.661Z,18.62
2023-04-10T08:50:03.133Z,18.65
2023-04-10T08:52:56.375Z,18.78
2023-04-10T08:55:50.611Z,18.68
2023-04-10T09:02:04.490Z,18.52
2023-04-10T09:08:18.302Z,18.34
2023-04-10T09:14:23.155Z,18.17
2023-04-10T09:17:17.782Z,17.83
2023-04-10T09:20:22.042Z,17.79
2023-04-10T09:23:21.764Z,17.90
2023-04-10T09:26:27.567Z,18.00
2023-04-10T09:29:48.900Z,18.46
2023-04-10T09:32:42.932Z,18.32
2023-04-10T09:35:39.415Z,18.14
2023-04-10T09:38:32.423Z,17.92
2023-04-10T09:44:40.043Z,17.90
2023-04-10T09:47:34.511Z,18.08
2023-04-10T09:50:38.695Z,18.04
2023-04-10T09:53:33.577Z,17.90
2023-04-10T09:56:27.696Z,17.73
2023-04-10T09:59:20.496Z,17.93
2023-04-10T10:02:14.383Z,18.00
2023-04-10T10:05:10.080Z,18.19
2023-04-10T10:08:02.434Z,18.53
2023-04-10T10:11:15.311Z,18.83
2023-04-10T10:14:04.162Z,18.97
2023-04-10T10:16:51.438Z,18.85
2023-04-10T10:19:42.443Z,18.93
2023-04-10T10:22:30.255Z,19.27
2023-04-10T10:25:16.991Z,19.62
2023-04-10T10:28:04.578Z,19.80
2023-04-10T10:30:51.294Z,19.87
2023-04-10T10:33:39.171Z,19.89
2023-04-10T10:36:26.077Z,19.70
2023-04-10T10:39:22.837Z,19.60
2023-04-10T10:42:11.690Z,19.72
2023-04-10T10:45:02.519Z,19.59
2023-04-10T10:47:51.427Z,19.94
2023-04-10T10:50:51.362Z,20.39
2023-04-10T10:53:39.643Z,20.74
2023-04-10T10:56:37.173Z,21.35
2023-04-10T10:59:54.494Z,21.48
2023-04-10T11:02:40.712Z,21.57
2023-04-10T11:05:49.848Z,21.54
2023-04-10T11:08:44.784Z,21.75
2023-04-10T11:11:58.911Z,21.67
2023-04-10T11:18:03.693Z,21.49
2023-04-10T15:02:57.183Z,20.06
2023-04-10T15:05:50.839Z,21.04
2023-04-10T15:11:59.793Z,21.14
2023-04-10T15:14:53.177Z,21.20
2023-04-10T15:17:45.823Z,21.21
2023-04-10T15:20:39.971Z,21.20
2023-04-10T15:23:32.663Z,20.62
2023-04-10T15:30:01.535Z,21.14
2023-04-10T15:32:54.692Z,21.13
2023-04-10T15:35:49.757Z,21.10
2023-04-10T15:42:05.103Z,21.17
2023-04-10T15:44:57.403Z,21.00
2023-04-10T15:51:06.340Z,20.72
2023-04-10T15:57:10.873Z,20.84
2023-04-10T16:00:04.324Z,20.69
2023-04-10T16:02:56.698Z,20.90
2023-04-10T16:05:49.498Z,21.04
2023-04-10T16:08:43.584Z,20.91
2023-04-10T16:11:36.641Z,20.67
2023-04-10T16:14:29.728Z,20.51
2023-04-10T16:17:22.837Z,20.36
2023-04-10T16:20:15.892Z,20.25
2023-04-10T16:23:08.435Z,20.35
2023-04-10T16:26:15.902Z,20.35
2023-04-10T16:29:09.871Z,19.97
2023-04-10T16:35:48.623Z,19.80
2023-04-10T16:38:56.063Z,19.56
2023-04-10T16:41:48.257Z,19.62
2023-04-10T16:44:42.018Z,19.55
2023-04-10T16:50:43.290Z,19.03
2023-04-10T16:53:36.874Z,19.05
2023-04-10T16:56:29.522Z,19.03
2023-04-10T16:59:22.521Z,18.87
2023-04-10T17:02:16.972Z,18.76
2023-04-10T17:05:10.990Z,18.79
2023-04-10T17:08:04.045Z,18.80
2023-04-10T17:11:12.546Z,18.83
2023-04-10T17:14:03.994Z,18.85
2023-04-10T17:16:56.509Z,18.74
2023-04-10T17:19:51.013Z,18.88
2023-04-10T17:22:43.893Z,18.92
2023-04-10T17:28:53.276Z,18.63
2023-04-10T17:35:04.452Z,18.50
2023-04-10T17:37:57.233Z,18.48
2023-04-10T17:40:49.653Z,18.43
2023-04-10T17:43:42.947Z,18.39
2023-04-10T17:46:35.359Z,18.19
2023-04-10T17:49:27.353Z,18.30
2023-04-10T17:52:20.805Z,18.34
2023-04-10T17:55:18.200Z,18.12
2023-04-10T17:58:14.006Z,18.05
2023-04-10T18:04:18.928Z,17.95
2023-04-10T18:10:29.249Z,17.94
2023-04-10T18:13:21.863Z,17.79
2023-04-10T18:16:14.790Z,17.83
2023-04-10T18:19:11.955Z,17.84
2023-04-10T18:22:04.778Z,17.83
2023-04-10T18:24:57.293Z,17.67
2023-04-10T18:28:13.173Z,17.75
2023-04-10T18:34:26.907Z,17.68
2023-04-10T18:37:19.722Z,17.71
2023-04-10T18:40:16.440Z,17.62
2023-04-10T18:43:19.488Z,17.61
2023-04-10T18:46:12.501Z,17.69
2023-04-10T18:49:42.769Z,17.63
2023-04-10T18:52:35.295Z,17.59
2023-04-10T18:55:41.614Z,17.60
2023-04-10T18:58:36.145Z,17.67
2023-04-10T19:01:28.703Z,17.63
2023-04-10T19:04:21.957Z,17.70
2023-04-10T19:07:14.645Z,17.63
2023-04-10T19:10:08.703Z,17.52
2023-04-10T19:13:01.661Z,17.17
2023-04-10T19:15:56.283Z,17.25
2023-04-10T19:18:48.938Z,17.14
2023-04-10T19:24:53.928Z,17.24
2023-04-10T19:31:05.347Z,17.28
2023-04-10T19:33:57.726Z,17.13
2023-04-10T19:36:50.589Z,16.83
2023-04-10T19:39:43.892Z,17.02
2023-04-10T19:42:36.562Z,16.98
2023-04-10T19:45:29.930Z,16.80
2023-04-10T19:48:24.042Z,16.79
2023-04-10T19:51:16.842Z,15.96
2023-04-10T19:54:09.535Z,15.16
2023-04-10T19:57:27.690Z,15.37
2023-04-10T20:00:20.320Z,15.35
2023-04-10T20:03:26.685Z,14.90
2023-04-10T20:06:22.031Z,14.18
2023-04-10T20:13:00.459Z,13.47
2023-04-10T20:15:55.722Z,13.09
2023-04-10T20:18:48.529Z,12.97
2023-04-10T20:21:42.618Z,12.87
2023-04-10T20:24:36.091Z,12.78
2023-04-10T20:27:28.354Z,12.75
2023-04-10T20:30:20.798Z,12.76
2023-04-10T20:33:13.797Z,12.70
2023-04-10T20:39:20.280Z,12.57
2023-04-10T20:42:12.981Z,12.52
2023-04-10T20:48:17.877Z,12.59
2023-04-10T20:51:11.008Z,12.52
2023-04-10T20:54:04.368Z,12.48
2023-04-10T21:00:00.363Z,12.63
2023-04-10T21:02:53.021Z,12.43
2023-04-10T21:05:45.471Z,12.58
2023-04-10T21:08:38.431Z,12.65
2023-04-10T21:11:31.376Z,12.65
2023-04-10T21:14:23.441Z,12.60
2023-04-10T21:17:19.132Z,12.64
2023-04-10T21:20:12.760Z,12.54
2023-04-10T21:23:05.666Z,12.60
2023-04-10T21:25:58.758Z,12.62
2023-04-10T21:28:51.680Z,12.29
2023-04-10T21:31:44.775Z,12.43
2023-04-10T21:34:39.222Z,12.61
2023-04-10T21:40:56.312Z,12.68
2023-04-10T21:43:48.566Z,12.61
2023-04-10T21:46:41.452Z,12.42
2023-04-10T21:49:34.351Z,12.59
2023-04-10T21:52:27.826Z,12.49
2023-04-10T21:55:20.904Z,12.53
2023-04-10T22:01:59.346Z,12.52
2023-04-10T22:04:54.798Z,12.51
2023-04-10T22:07:48.701Z,12.50
2023-04-10T22:10:41.529Z,12.51
2023-04-10T22:13:31.117Z,12.51
2023-04-10T22:16:24.487Z,12.46
2023-04-10T22:19:17.793Z,12.48
2023-04-10T22:22:10.712Z,12.43
2023-04-10T22:25:05.945Z,12.35
2023-04-10T22:27:58.756Z,12.19
2023-04-10T22:30:51.693Z,12.25
2023-04-10T22:33:44.809Z,12.14
2023-04-10T22:36:37.881Z,12.19
2023-04-10T22:39:24.488Z,12.09
2023-04-10T22:42:18.992Z,11.98
2023-04-10T22:45:13.215Z,12.01
2023-04-10T22:48:06.113Z,11.98
2023-04-10T22:50:58.449Z,11.97
2023-04-10T22:53:51.277Z,11.94
2023-04-10T22:56:44.041Z,11.97
2023-04-10T22:59:38.134Z,11.98
2023-04-10T23:02:31.278Z,11.90
2023-04-10T23:05:24.894Z,11.87
2023-04-10T23:08:17.546Z,11.78
2023-04-10T23:11:11.153Z,11.71
2023-04-10T23:14:03.494Z,11.66
2023-04-10T23:16:58.042Z,11.63
2023-04-10T23:19:50.751Z,11.63
2023-04-10T23:22:43.462Z,11.58
2023-04-10T23:25:37.706Z,11.59
2023-04-10T23:28:30.206Z,11.56
2023-04-10T23:31:22.468Z,11.44
2023-04-10T23:34:17.034Z,11.48
2023-04-10T23:37:17.671Z,11.45
2023-04-10T23:40:04.449Z,11.45
2023-04-10T23:42:50.545Z,11.45
2023-04-10T23:45:36.780Z,11.43
2023-04-10T23:48:23.006Z,11.34
2023-04-10T23:51:10.611Z,11.35
2023-04-10T23:53:56.400Z,11.30
2023-04-10T23:59:58.905Z,11.05
